Time,TemperatureF,DewpointF,PressureIn,WindDirection,WindDirectionDegrees,WindSpeedMPH,WindSpeedGustMPH,Humidity,HourlyPrecipIn,Conditions,Clouds,dailyrainin,SoftwareType,DateUTC
2014-01-05 00:00:00,35.2,0.0,29.97,NNE,32,7.5,9.7,0,0.03,,---,0.00,VWS V15.00,2014-01-05 05:00:00,
2014-01-05 00:01:00,25.2,0.0,30.22,SSW,201,7.5,14.9,0,0.00,,---,0.00,VWS V14.00,2014-01-05 05:01:00,
2014-01-05 00:02:00,35.2,0.0,29.97,North,3,11.5,12.2,0,0.03,,---,0.00,VWS V15.00,2014-01-05 05:02:00,
2014-01-05 00:03:00,35.2,0.0,29.97,NE,35,7.2,15.6,0,0.03,,---,0.00,VWS V15.00,2014-01-05 05:03:00,
2014-01-05 00:04:00,35.2,0.0,29.97,NNE,15,8.1,15.6,0,0.03,,---,0.00,VWS V15.00,2014-01-05 05:04:00,
2014-01-05 00:05:00,35.2,0.0,29.97,NE,52,7.5,15.6,0,0.03,,---,0.00,VWS V15.00,2014-01-05 05:05:00,
2014-01-05 00:06:00,25.2,0.0,30.22,SW,224,6.9,17.1,0,0.00,,---,0.00,VWS V14.00,2014-01-05 05:06:00,
2014-01-05 00:07:00,25.1,0.0,30.22,SW,221,11.6,14.2,0,0.00,,---,0.00,VWS V14.00,2014-01-05 05:07:00,
2014-01-05 00:08:00,35.1,0.0,29.96,NNE,30,8.0,15.6,0,0.04,,---,0.01,VWS V15.00,2014-01-05 05:08:00,
2014-01-05 00:09:00,35.1,0.0,29.96,NE,52,7.6,15.6,0,0.04,,---,0.01,VWS V15.00,2014-01-05 05:09:00,
2014-01-05 00:10:00,35.1,0.0,29.96,North,359,7.1,15.6,0,0.04,,---,0.01,VWS V15.00,2014-01-05 05:10:00,
2014-01-05 00:11:00,35.1,0.0,29.95,NNE,21,7.4,15.6,0,0.04,,---,0.01,VWS V15.00,2014-01-05 05:11:00,
2014-01-05 00:12:00,25.4,0.0,30.22,SW,224,11.3,13.2,0,0.00,,---,0.00,VWS V14.00,2014-01-05 05:12:00,
2014-01-05 00:13:00,35.1,0.0,29.95,NNE,32,6.5,15.6,0,0.04,,---,0.01,VWS V15.00,2014-01-05 05:13:00,
2014-01-05 00:17:00,25.4,0.0,30.22,SW,232,12.5,15.4,0,0.00,,---,0.00,VWS V14.00,2014-01-05 05:17:00,
2014-01-05 00:22:00,25.3,0.0,30.22,SSW,210,8.0,15.2,0,0.00,,---,0.00,VWS V14.00,2014-01-05 05:22:00,
2014-01-05 00:27:00,25.3,0.0,30.22,WSW,250,9.5,14.7,0,0.00,,---,0.00,VWS V14.00,2014-01-05 05:27:00,
2014-01-05 00:32:00,25.5,0.0,30.22,SW,215,7.7,15.3,0,0.00,,---,0.00,VWS V14.00,2014-01-05 05:32:00,
2014-01-05 00:37:00,25.6,0.0,30.23,WSW,249,10.0,13.5,0,0.00,,---,0.00,VWS V14.00,2014-01-05 05:37:00,
2014-01-05 00:42:00,25.6,0.0,30.22,SSW,207,9.9,14.2,0,0.00,,---,0.00,VWS V14.00,2014-01-05 05:42:00,
2014-01-05 00:47:00,25.5,0.0,30.22,SW,236,10.0,15.8,0,0.00,,---,0.00,VWS V14.00,2014-01-05 05:47:00,
2014-01-05 00:52:00,25.6,0.0,30.22,WSW,242,7.6,15.6,0,0.00,,---,0.00,VWS V14.00,2014-01-05 05:52:00,
2014-01-05 00:57:00,25.6,0.0,30.22,SW,226,12.1,14.9,0,0.00,,---,0.00,VWS V14.00,2014-01-05 05:57:00,
2014-01-05 01:02:00,25.8,0.0,30.22,SSW,205,5.5,14.7,0,0.00,,---,0.00,VWS V14.00,2014-01-05 06:02:00,
2014-01-05 01:07:00,25.7,0.0,30.23,WSW,238,9.7,15.8,0,0.00,,---,0.00,VWS V14.00,2014-01-05 06:07:00,
2014-01-05 01:12:00,25.8,0.0,30.23,WSW,252,5.8,15.0,0,0.00,,---,0.00,VWS V14.00,2014-01-05 06:12:00,
2014-01-05 01:17:00,25.7,0.0,30.23,SSW,200,11.2,15.5,0,0.00,,---,0.00,VWS V14.00,2014-01-05 06:17:00,
2014-01-05 01:21:00,25.8,0.0,30.23,SW,222,8.5,18.6,0,0.00,,---,0.00,VWS V14.00,2014-01-05 06:21:00,
2014-01-05 01:26:00,25.8,0.0,30.23,SW,236,9.4,13.4,0,0.00,,---,0.00,VWS V14.00,2014-01-05 06:26:00,
2014-01-05 01:31:00,25.7,0.0,30.23,SW,228,7.0,14.4,0,0.00,,---,0.00,VWS V14.00,2014-01-05 06:31:00,
2014-01-05 01:36:00,25.7,0.0,30.23,WSW,242,5.6,14.4,0,0.00,,---,0.00,VWS V14.00,2014-01-05 06:36:00,
2014-01-05 01:41:00,25.8,0.0,30.23,SW,228,11.0,12.6,0,0.00,,---,0.00,VWS V14.00,2014-01-05 06:41:00,
2014-01-05 01:46:00,25.7,0.0,30.23,WNW,287,8.0,14.5,0,0.00,,---,0.00,VWS V14.00,2014-01-05 06:46:00,
2014-01-05 01:51:00,25.5,0.0,30.23,SSW,205,7.1,12.3,0,0.00,,---,0.00,VWS V14.00,2014-01-05 06:51:00,
2014-01-05 01:56:00,25.4,0.0,30.23,WSW,243,4.5,12.6,0,0.00,,---,0.00,VWS V14.00,2014-01-05 06:56:00,
2014-01-05 02:01:00,25.5,0.0,30.23,WSW,248,4.4,11.6,0,0.00,,---,0.00,VWS V14.00,2014-01-05 07:01:00,
2014-01-05 02:06:00,25.4,0.0,30.23,SW,218,3.2,10.7,0,0.00,,---,0.00,VWS V14.00,2014-01-05 07:06:00,
2014-01-05 02:11:00,25.4,0.0,30.23,WSW,248,6.1,11.2,0,0.00,,---,0.00,VWS V14.00,2014-01-05 07:11:00,
2014-01-05 02:16:00,25.3,0.0,30.23,West,263,6.3,9.9,0,0.00,,---,0.00,VWS V14.00,2014-01-05 07:16:00,
2014-01-05 02:21:00,25.0,0.0,30.23,South,184,0.0,8.9,0,0.00,,---,0.00,VWS V14.00,2014-01-05 07:21:00,
2014-01-05 02:26:00,24.8,0.0,30.23,SSW,194,6.8,7.4,0,0.00,,---,0.00,VWS V14.00,2014-01-05 07:26:00,
2014-01-05 02:31:00,24.8,0.0,30.23,SW,224,5.2,9.8,0,0.00,,---,0.00,VWS V14.00,2014-01-05 07:31:00,
2014-01-05 02:36:00,24.8,0.0,30.23,SSW,211,6.9,9.3,0,0.00,,---,0.00,VWS V14.00,2014-01-05 07:36:00,
2014-01-05 02:41:00,24.3,0.0,30.23,SSW,200,0.0,7.8,0,0.00,,---,0.00,VWS V14.00,2014-01-05 07:41:00,
2014-01-05 02:46:00,24.4,0.0,30.23,SW,224,5.5,8.5,0,0.00,,---,0.00,VWS V14.00,2014-01-05 07:46:00,
2014-01-05 02:51:00,24.4,0.0,30.23,SW,218,0.0,8.7,0,0.00,,---,0.00,VWS V14.00,2014-01-05 07:51:00,
2014-01-05 02:56:00,24.2,0.0,30.23,WSW,242,0.0,7.3,0,0.00,,---,0.00,VWS V14.00,2014-01-05 07:56:00,
2014-01-05 03:01:00,24.3,0.0,30.22,SSW,212,0.0,7.0,0,0.00,,---,0.00,VWS V14.00,2014-01-05 08:01:00,
2014-01-05 03:06:00,24.2,0.0,30.22,WSW,249,0.0,5.8,0,0.00,,---,0.00,VWS V14.00,2014-01-05 08:06:00,
2014-01-05 03:11:00,24.1,0.0,30.22,SW,235,5.5,7.6,0,0.00,,---,0.00,VWS V14.00,2014-01-05 08:11:00,
2014-01-05 03:16:00,24.1,0.0,30.22,SW,228,5.2,7.0,0,0.00,,---,0.00,VWS V14.00,2014-01-05 08:16:00,
2014-01-05 03:21:00,24.0,0.0,30.22,South,188,0.0,6.0,0,0.00,,---,0.00,VWS V14.00,2014-01-05 08:21:00,
2014-01-05 03:26:00,23.9,0.0,30.22,South,188,0.0,0.0,0,0.00,,---,0.00,VWS V14.00,2014-01-05 08:26:00,
2014-01-05 03:31:00,23.8,0.0,30.22,South,188,0.0,0.0,0,0.00,,---,0.00,VWS V14.00,2014-01-05 08:31:00,
2014-01-05 03:36:00,23.8,0.0,30.22,South,188,0.0,0.0,0,0.00,,---,0.00,VWS V14.00,2014-01-05 08:36:00,
2014-01-05 03:41:00,23.7,0.0,30.22,South,188,0.0,0.0,0,0.00,,---,0.00,VWS V14.00,2014-01-05 08:41:00,
2014-01-05 03:46:00,23.6,0.0,30.23,South,188,0.0,0.0,0,0.00,,---,0.00,VWS V14.00,2014-01-05 08:46:00,
2014-01-05 03:51:00,23.7,0.0,30.23,South,188,0.0,0.0,0,0.00,,---,0.00,VWS V14.00,2014-01-05 08:51:00,
2014-01-05 03:56:00,23.7,0.0,30.23,South,188,0.0,0.0,0,0.00,,---,0.00,VWS V14.00,2014-01-05 08:56:00,
2014-01-05 04:01:00,23.3,0.0,30.23,South,188,0.0,0.0,0,0.00,,---,0.00,VWS V14.00,2014-01-05 09:01:00,
2014-01-05 04:06:00,23.2,0.0,30.23,South,183,0.0,4.9,0,0.00,,---,0.00,VWS V14.00,2014-01-05 09:06:00,
2014-01-05 04:11:00,23.2,0.0,30.23,SSW,208,0.0,2.9,0,0.00,,---,0.00,VWS V14.00,2014-01-05 09:11:00,
2014-01-05 04:16:00,23.1,0.0,30.23,SSW,208,0.0,2.9,0,0.00,,---,0.00,VWS V14.00,2014-01-05 09:16:00,
2014-01-05 04:21:00,23.1,0.0,30.23,SSW,208,0.0,0.0,0,0.00,,---,0.00,VWS V14.00,2014-01-05 09:21:00,
2014-01-05 04:26:00,23.1,0.0,30.23,SSW,207,2.9,0.0,0,0.00,,---,0.00,VWS V14.00,2014-01-05 09:26:00,
2014-01-05 04:31:00,22.7,0.0,30.23,SW,222,0.0,4.3,0,0.00,,---,0.00,VWS V14.00,2014-01-05 09:31:00,
2014-01-05 04:36:00,22.6,0.0,30.22,SSW,200,0.0,4.8,0,0.00,,---,0.00,VWS V14.00,2014-01-05 09:36:00,
2014-01-05 04:41:00,22.8,0.0,30.22,SSW,210,0.0,4.8,0,0.00,,---,0.00,VWS V14.00,2014-01-05 09:41:00,
2014-01-05 04:46:00,22.8,0.0,30.23,SW,219,0.0,5.6,0,0.00,,---,0.00,VWS V14.00,2014-01-05 09:46:00,
2014-01-05 04:51:00,22.9,0.0,30.23,SSW,208,4.5,7.2,0,0.00,,---,0.00,VWS V14.00,2014-01-05 09:51:00,
2014-01-05 04:56:00,22.7,0.0,30.23,SSW,211,0.0,6.3,0,0.00,,---,0.00,VWS V14.00,2014-01-05 09:56:00,
2014-01-05 05:01:00,22.2,0.0,30.23,SSW,211,0.0,6.0,0,0.00,,---,0.00,VWS V14.00,2014-01-05 10:01:00,
2014-01-05 05:06:00,21.9,0.0,30.24,SSW,211,0.0,0.0,0,0.00,,---,0.00,VWS V14.00,2014-01-05 10:06:00,
2014-01-05 05:11:00,21.7,0.0,30.24,SSW,211,0.0,0.0,0,0.00,,---,0.00,VWS V14.00,2014-01-05 10:11:00,
2014-01-05 05:16:00,21.2,0.0,30.24,SSW,211,0.0,0.0,0,0.00,,---,0.00,VWS V14.00,2014-01-05 10:16:00,
2014-01-05 05:21:00,20.7,0.0,30.24,SSW,211,0.0,0.0,0,0.00,,---,0.00,VWS V14.00,2014-01-05 10:21:00,
2014-01-05 05:26:00,20.7,0.0,30.24,SSW,211,0.0,0.0,0,0.00,,---,0.00,VWS V14.00,2014-01-05 10:26:00,
2014-01-05 05:31:00,20.0,0.0,30.24,SSW,211,0.0,0.0,0,0.00,,---,0.00,VWS V14.00,2014-01-05 10:31:00,
2014-01-05 05:36:00,19.8,0.0,30.25,SSW,211,0.0,0.0,0,0.00,,---,0.00,VWS V14.00,2014-01-05 10:36:00,
2014-01-05 05:41:00,19.9,0.0,30.25,SSW,211,0.0,0.0,0,0.00,,---,0.00,VWS V14.00,2014-01-05 10:41:00,
2014-01-05 05:46:00,19.6,0.0,30.25,SSW,211,0.0,0.0,0,0.00,,---,0.00,VWS V14.00,2014-01-05 10:46:00,
2014-01-05 05:51:00,19.6,0.0,30.25,SSW,211,0.0,0.0,0,0.00,,---,0.00,VWS V14.00,2014-01-05 10:51:00,
2014-01-05 05:56:00,18.9,0.0,30.25,SSW,211,0.0,0.0,0,0.00,,---,0.00,VWS V14.00,2014-01-05 10:56:00,
2014-01-05 06:01:00,18.9,0.0,30.25,SSW,211,0.0,0.0,0,0.00,,---,0.00,VWS V14.00,2014-01-05 11:01:00,
2014-01-05 06:06:00,20.2,0.0,30.25,SW,229,0.0,0.0,0,0.00,,---,0.00,VWS V14.00,2014-01-05 11:06:00,
2014-01-05 06:11:00,20.5,0.0,30.25,SW,217,0.0,3.0,0,0.00,,---,0.00,VWS V14.00,2014-01-05 11:11:00,
2014-01-05 06:16:00,21.1,0.0,30.25,South,184,0.0,3.4,0,0.00,,---,0.00,VWS V14.00,2014-01-05 11:16:00,
2014-01-05 06:21:00,21.0,0.0,30.26,South,184,0.0,2.7,0,0.00,,---,0.00,VWS V14.00,2014-01-05 11:21:00,
2014-01-05 06:26:00,21.1,0.0,30.26,South,184,0.0,0.0,0,0.00,,---,0.00,VWS V14.00,2014-01-05 11:26:00,
2014-01-05 06:31:00,20.8,0.0,30.26,South,184,0.0,0.0,0,0.00,,---,0.00,VWS V14.00,2014-01-05 11:31:00,
2014-01-05 06:36:00,20.8,0.0,30.26,South,184,0.0,0.0,0,0.00,,---,0.00,VWS V14.00,2014-01-05 11:36:00,
2014-01-05 06:41:00,20.6,0.0,30.27,South,184,0.0,2.2,0,0.00,,---,0.00,VWS V14.00,2014-01-05 11:41:00,
2014-01-05 06:46:00,19.6,0.0,30.26,South,184,0.0,0.0,0,0.00,,---,0.00,VWS V14.00,2014-01-05 11:46:00,
2014-01-05 06:51:00,19.2,0.0,30.26,South,184,0.0,0.0,0,0.00,,---,0.00,VWS V14.00,2014-01-05 11:51:00,
2014-01-05 06:56:00,19.3,0.0,30.26,South,184,0.0,0.0,0,0.00,,---,0.00,VWS V14.00,2014-01-05 11:56:00,
2014-01-05 07:01:00,18.6,0.0,30.26,South,184,0.0,0.0,0,0.00,,---,0.00,VWS V14.00,2014-01-05 12:01:00,
2014-01-05 07:06:00,18.6,0.0,30.27,South,184,0.0,0.0,0,0.00,,---,0.00,VWS V14.00,2014-01-05 12:06:00,
2014-01-05 07:11:00,18.6,0.0,30.27,South,184,0.0,0.0,0,0.00,,---,0.00,VWS V14.00,2014-01-05 12:11:00,
2014-01-05 07:16:00,18.4,0.0,30.27,South,184,0.0,0.0,0,0.00,,---,0.00,VWS V14.00,2014-01-05 12:16:00,
2014-01-05 07:21:00,18.4,0.0,30.28,South,184,0.0,0.0,0,0.00,,---,0.00,VWS V14.00,2014-01-05 12:21:00,
2014-01-05 07:26:00,18.1,0.0,30.28,South,184,0.0,0.0,0,0.00,,---,0.00,VWS V14.00,2014-01-05 12:26:00,
2014-01-05 07:31:00,18.0,0.0,30.28,South,184,0.0,0.0,0,0.00,,---,0.00,VWS V14.00,2014-01-05 12:31:00,
2014-01-05 07:36:00,17.9,0.0,30.28,South,184,0.0,0.0,0,0.00,,---,0.00,VWS V14.00,2014-01-05 12:36:00,
2014-01-05 07:41:00,17.9,0.0,30.29,South,184,0.0,0.0,0,0.00,,---,0.00,VWS V14.00,2014-01-05 12:41:00,
2014-01-05 07:46:00,18.0,0.0,30.29,South,184,0.0,0.0,0,0.00,,---,0.00,VWS V14.00,2014-01-05 12:46:00,
2014-01-05 07:51:00,17.9,0.0,30.29,South,184,0.0,0.0,0,0.00,,---,0.00,VWS V14.00,2014-01-05 12:51:00,
2014-01-05 07:56:00,17.8,0.0,30.29,South,184,0.0,0.0,0,0.00,,---,0.00,VWS V14.00,2014-01-05 12:56:00,
2014-01-05 08:01:00,17.7,0.0,30.29,South,184,0.0,0.0,0,0.00,,---,0.00,VWS V14.00,2014-01-05 13:01:00,
2014-01-05 08:06:00,17.9,0.0,30.29,South,184,0.0,0.0,0,0.00,,---,0.00,VWS V14.00,2014-01-05 13:06:00,
2014-01-05 08:11:00,18.3,0.0,30.29,South,184,0.0,0.0,0,0.00,,---,0.00,VWS V14.00,2014-01-05 13:11:00,
2014-01-05 08:16:00,18.4,0.0,30.29,WNW,288,0.0,0.0,0,0.00,,---,0.00,VWS V14.00,2014-01-05 13:16:00,
2014-01-05 08:21:00,18.6,0.0,30.29,WNW,288,0.0,4.2,0,0.00,,---,0.00,VWS V14.00,2014-01-05 13:21:00,
2014-01-05 08:26:00,19.0,0.0,30.29,NW,315,0.0,7.3,0,0.00,,---,0.00,VWS V14.00,2014-01-05 13:26:00,
2014-01-05 08:31:00,19.5,0.0,30.29,NW,315,0.0,1.1,0,0.00,,---,0.00,VWS V14.00,2014-01-05 13:31:00,
2014-01-05 08:36:00,20.0,0.0,30.29,NW,315,0.0,0.0,0,0.00,,---,0.00,VWS V14.00,2014-01-05 13:36:00,
2014-01-05 08:41:00,20.2,0.0,30.29,NW,315,0.0,0.0,0,0.00,,---,0.00,VWS V14.00,2014-01-05 13:41:00,
2014-01-05 08:46:00,20.3,0.0,30.29,NW,315,0.0,0.0,0,0.00,,---,0.00,VWS V14.00,2014-01-05 13:46:00,
2014-01-05 08:51:00,20.6,0.0,30.29,NW,315,0.0,0.0,0,0.00,,---,0.00,VWS V14.00,2014-01-05 13:51:00,
2014-01-05 08:56:00,20.8,0.0,30.29,NW,315,0.0,0.0,0,0.00,,---,0.00,VWS V14.00,2014-01-05 13:56:00,
2014-01-05 09:01:00,20.9,0.0,30.29,NW,315,0.0,0.0,0,0.00,,---,0.00,VWS V14.00,2014-01-05 14:01:00,
2014-01-05 09:06:00,21.4,0.0,30.29,NW,315,0.0,0.0,0,0.00,,---,0.00,VWS V14.00,2014-01-05 14:06:00,
2014-01-05 09:11:00,21.8,0.0,30.29,NW,315,0.0,0.0,0,0.00,,---,0.00,VWS V14.00,2014-01-05 14:11:00,
2014-01-05 09:16:00,21.8,0.0,30.29,WNW,287,0.0,0.0,0,0.00,,---,0.00,VWS V14.00,2014-01-05 14:16:00,
2014-01-05 09:21:00,22.2,0.0,30.29,WNW,287,0.0,3.0,0,0.00,,---,0.00,VWS V14.00,2014-01-05 14:21:00,
2014-01-05 09:26:00,22.8,0.0,30.29,WNW,287,0.0,0.0,0,0.00,,---,0.00,VWS V14.00,2014-01-05 14:26:00,
2014-01-05 09:31:00,22.9,0.0,30.29,WNW,287,0.0,0.0,0,0.00,,---,0.00,VWS V14.00,2014-01-05 14:31:00,
2014-01-05 09:36:00,23.5,0.0,30.29,WNW,287,0.0,0.0,0,0.00,,---,0.00,VWS V14.00,2014-01-05 14:36:00,
2014-01-05 09:41:00,23.4,0.0,30.29,WNW,287,0.0,0.0,0,0.00,,---,0.00,VWS V14.00,2014-01-05 14:41:00,
2014-01-05 09:46:00,23.8,0.0,30.28,WNW,287,0.0,0.0,0,0.00,,---,0.00,VWS V14.00,2014-01-05 14:46:00,
2014-01-05 09:51:00,24.2,0.0,30.29,WNW,287,0.0,0.0,0,0.00,,---,0.00,VWS V14.00,2014-01-05 14:51:00,
2014-01-05 09:56:00,25.3,0.0,30.29,WNW,287,0.0,0.0,0,0.00,,---,0.00,VWS V14.00,2014-01-05 14:56:00,
2014-01-05 10:01:00,25.1,0.0,30.29,WNW,287,0.0,0.0,0,0.00,,---,0.00,VWS V14.00,2014-01-05 15:01:00,
2014-01-05 10:06:00,26.4,0.0,30.29,WNW,287,0.0,0.0,0,0.00,,---,0.00,VWS V14.00,2014-01-05 15:06:00,
2014-01-05 10:11:00,26.9,0.0,30.28,WNW,287,0.0,0.0,0,0.00,,---,0.00,VWS V14.00,2014-01-05 15:11:00,
2014-01-05 10:16:00,28.4,0.0,30.28,WNW,287,0.0,0.0,0,0.00,,---,0.00,VWS V14.00,2014-01-05 15:16:00,
2014-01-05 10:21:00,28.7,0.0,30.28,WNW,287,0.0,0.0,0,0.00,,---,0.00,VWS V14.00,2014-01-05 15:21:00,
2014-01-05 10:26:00,30.3,0.0,30.28,WNW,287,0.0,1.3,0,0.00,,---,0.00,VWS V14.00,2014-01-05 15:26:00,
2014-01-05 10:31:00,31.1,0.0,30.28,WNW,287,0.0,0.0,0,0.00,,---,0.00,VWS V14.00,2014-01-05 15:31:00,
2014-01-05 10:36:00,30.8,0.0,30.28,WNW,284,0.0,0.0,0,0.00,,---,0.00,VWS V14.00,2014-01-05 15:36:00,
2014-01-05 10:41:00,31.6,0.0,30.27,NNW,332,2.7,4.1,0,0.00,,---,0.00,VWS V14.00,2014-01-05 15:41:00,
2014-01-05 10:46:00,31.5,0.0,30.27,NW,319,0.0,7.5,0,0.00,,---,0.00,VWS V14.00,2014-01-05 15:46:00,
2014-01-05 10:51:00,34.5,0.0,30.27,NW,307,0.0,7.1,0,0.00,,---,0.00,VWS V14.00,2014-01-05 15:51:00,
2014-01-05 10:56:00,34.4,0.0,30.26,NW,307,0.0,5.3,0,0.00,,---,0.00,VWS V14.00,2014-01-05 15:56:00,
2014-01-05 11:01:00,35.5,0.0,30.26,NW,307,0.0,5.8,0,0.00,,---,0.00,VWS V14.00,2014-01-05 16:01:00,
2014-01-05 11:06:00,35.9,0.0,30.27,NW,307,0.0,0.0,0,0.00,,---,0.00,VWS V14.00,2014-01-05 16:06:00,
2014-01-05 11:11:00,35.0,0.0,30.27,NW,307,0.0,0.0,0,0.00,,---,0.00,VWS V14.00,2014-01-05 16:11:00,
2014-01-05 11:16:00,33.4,0.0,30.27,NW,307,0.0,0.0,0,0.00,,---,0.00,VWS V14.00,2014-01-05 16:16:00,
2014-01-05 11:21:00,33.1,0.0,30.27,NW,307,0.0,0.0,0,0.00,,---,0.00,VWS V14.00,2014-01-05 16:21:00,
2014-01-05 11:26:00,32.9,0.0,30.27,NW,307,0.0,0.0,0,0.00,,---,0.00,VWS V14.00,2014-01-05 16:26:00,
2014-01-05 11:31:00,34.4,0.0,30.26,NW,307,0.0,0.0,0,0.00,,---,0.00,VWS V14.00,2014-01-05 16:31:00,
2014-01-05 11:36:00,33.3,0.0,30.26,NW,307,0.0,0.0,0,0.00,,---,0.00,VWS V14.00,2014-01-05 16:36:00,
2014-01-05 11:41:00,35.5,0.0,30.26,NW,307,0.0,0.0,0,0.00,,---,0.00,VWS V14.00,2014-01-05 16:41:00,
2014-01-05 11:46:00,37.0,0.0,30.26,NW,307,0.0,0.0,0,0.00,,---,0.00,VWS V14.00,2014-01-05 16:46:00,
2014-01-05 11:51:00,36.7,0.0,30.26,NW,307,0.0,0.0,0,0.00,,---,0.00,VWS V14.00,2014-01-05 16:51:00,
2014-01-05 11:56:00,34.8,0.0,30.25,NW,307,0.0,0.0,0,0.00,,---,0.00,VWS V14.00,2014-01-05 16:56:00,
2014-01-05 12:01:00,34.0,0.0,30.25,NW,307,0.0,0.0,0,0.00,,---,0.00,VWS V14.00,2014-01-05 17:01:00,
2014-01-05 12:06:00,35.0,0.0,30.25,South,188,5.5,7.1,0,0.00,,---,0.00,VWS V14.00,2014-01-05 17:06:00,
2014-01-05 12:11:00,33.9,0.0,30.24,South,186,5.2,8.1,0,0.00,,---,0.00,VWS V14.00,2014-01-05 17:11:00,
2014-01-05 12:16:00,34.1,0.0,30.24,South,181,5.7,7.8,0,0.00,,---,0.00,VWS V14.00,2014-01-05 17:16:00,
2014-01-05 12:21:00,34.8,0.0,30.23,SSE,156,4.4,7.1,0,0.00,,---,0.00,VWS V14.00,2014-01-05 17:21:00,
2014-01-05 12:26:00,35.1,0.0,30.23,South,174,3.5,8.1,0,0.00,,---,0.00,VWS V14.00,2014-01-05 17:26:00,
2014-01-05 12:31:00,35.7,0.0,30.23,ESE,120,0.0,7.8,0,0.00,,---,0.00,VWS V14.00,2014-01-05 17:31:00,
2014-01-05 12:36:00,35.6,0.0,30.23,SSW,198,4.7,6.6,0,0.00,,---,0.00,VWS V14.00,2014-01-05 17:36:00,
2014-01-05 12:40:00,35.8,0.0,30.23,South,170,3.4,6.7,0,0.00,,---,0.00,VWS V14.00,2014-01-05 17:40:00,
2014-01-05 12:45:00,35.8,0.0,30.23,SSE,158,0.0,7.0,0,0.00,,---,0.00,VWS V14.00,2014-01-05 17:45:00,
2014-01-05 12:50:00,35.7,0.0,30.22,SSE,166,7.3,7.3,0,0.00,,---,0.00,VWS V14.00,2014-01-05 17:50:00,
2014-01-05 12:55:00,35.8,0.0,30.22,SSE,160,4.2,9.1,0,0.00,,---,0.00,VWS V14.00,2014-01-05 17:55:00,
2014-01-05 13:00:00,35.8,0.0,30.22,SE,146,2.9,8.0,0,0.00,,---,0.00,VWS V14.00,2014-01-05 18:00:00,
2014-01-05 13:05:00,36.0,0.0,30.22,SSE,167,2.2,7.3,0,0.00,,---,0.00,VWS V14.00,2014-01-05 18:05:00,
2014-01-05 13:10:00,36.0,0.0,30.22,SE,136,0.0,6.9,0,0.00,,---,0.00,VWS V14.00,2014-01-05 18:10:00,
2014-01-05 13:15:00,36.4,0.0,30.22,SE,143,3.0,7.7,0,0.00,,---,0.00,VWS V14.00,2014-01-05 18:15:00,
2014-01-05 13:20:00,35.9,0.0,30.22,South,187,4.2,6.8,0,0.00,,---,0.00,VWS V14.00,2014-01-05 18:20:00,
2014-01-05 13:25:00,35.2,0.0,30.22,South,190,4.2,7.7,0,0.00,,---,0.00,VWS V14.00,2014-01-05 18:25:00,
2014-01-05 13:30:00,35.9,0.0,30.21,SSE,155,5.8,7.6,0,0.00,,---,0.00,VWS V14.00,2014-01-05 18:30:00,
2014-01-05 13:35:00,35.5,0.0,30.21,SSE,165,7.3,8.1,0,0.00,,---,0.00,VWS V14.00,2014-01-05 18:35:00,
2014-01-05 13:40:00,34.9,0.0,30.21,South,184,7.9,8.7,0,0.00,,---,0.00,VWS V14.00,2014-01-05 18:40:00,
2014-01-05 13:45:00,34.6,0.0,30.21,South,176,3.5,10.3,0,0.00,,---,0.00,VWS V14.00,2014-01-05 18:45:00,
2014-01-05 13:50:00,34.6,0.0,30.21,SSE,150,4.3,8.5,0,0.00,,---,0.00,VWS V14.00,2014-01-05 18:50:00,
2014-01-05 13:55:00,34.6,0.0,30.21,SSW,205,4.3,7.1,0,0.00,,---,0.00,VWS V14.00,2014-01-05 18:55:00,
2014-01-05 14:00:00,34.6,0.0,30.21,SSW,193,0.0,8.4,0,0.00,,---,0.00,VWS V14.00,2014-01-05 19:00:00,
2014-01-05 14:05:00,34.9,0.0,30.21,SSW,193,4.5,7.8,0,0.00,,---,0.00,VWS V14.00,2014-01-05 19:05:00,
2014-01-05 14:10:00,34.9,0.0,30.22,South,181,5.3,8.0,0,0.00,,---,0.00,VWS V14.00,2014-01-05 19:10:00,
2014-01-05 14:15:00,34.8,0.0,30.22,SSW,198,6.2,9.0,0,0.00,,---,0.00,VWS V14.00,2014-01-05 19:15:00,
2014-01-05 14:20:00,34.7,0.0,30.21,SSW,202,6.0,8.5,0,0.00,,---,0.00,VWS V14.00,2014-01-05 19:20:00,
2014-01-05 14:25:00,34.6,0.0,30.21,SSW,208,5.1,9.1,0,0.00,,---,0.00,VWS V14.00,2014-01-05 19:25:00,
2014-01-05 14:30:00,34.3,0.0,30.21,SSE,163,7.0,8.8,0,0.00,,---,0.00,VWS V14.00,2014-01-05 19:30:00,
2014-01-05 14:35:00,34.3,0.0,30.21,South,181,4.7,8.5,0,0.00,,---,0.00,VWS V14.00,2014-01-05 19:35:00,
2014-01-05 14:40:00,34.4,0.0,30.21,South,180,5.9,7.8,0,0.00,,---,0.00,VWS V14.00,2014-01-05 19:40:00,
2014-01-05 14:45:00,34.4,0.0,30.21,South,172,4.6,7.6,0,0.00,,---,0.00,VWS V14.00,2014-01-05 19:45:00,
2014-01-05 14:50:00,34.2,0.0,30.21,SSE,165,4.3,8.6,0,0.00,,---,0.00,VWS V14.00,2014-01-05 19:50:00,
2014-01-05 14:55:00,34.1,0.0,30.21,South,191,3.3,8.1,0,0.00,,---,0.00,VWS V14.00,2014-01-05 19:55:00,
2014-01-05 15:00:00,34.6,0.0,30.21,South,183,0.0,7.6,0,0.00,,---,0.00,VWS V14.00,2014-01-05 20:00:00,
2014-01-05 15:05:00,34.7,0.0,30.20,SSW,193,4.3,6.5,0,0.00,,---,0.00,VWS V14.00,2014-01-05 20:05:00,
2014-01-05 15:10:00,34.4,0.0,30.20,SSW,195,4.7,8.9,0,0.00,,---,0.00,VWS V14.00,2014-01-05 20:10:00,
2014-01-05 15:15:00,34.2,0.0,30.20,South,177,5.1,7.5,0,0.00,,---,0.00,VWS V14.00,2014-01-05 20:15:00,
2014-01-05 15:20:00,34.3,0.0,30.20,South,180,8.3,8.3,0,0.00,,---,0.00,VWS V14.00,2014-01-05 20:20:00,
2014-01-05 15:25:00,34.1,0.0,30.20,South,187,6.2,8.6,0,0.00,,---,0.00,VWS V14.00,2014-01-05 20:25:00,
2014-01-05 15:30:00,34.0,0.0,30.21,South,188,4.9,8.2,0,0.00,,---,0.00,VWS V14.00,2014-01-05 20:30:00,
2014-01-05 15:35:00,34.0,0.0,30.21,SSW,193,7.6,8.3,0,0.00,,---,0.00,VWS V14.00,2014-01-05 20:35:00,
2014-01-05 15:40:00,34.0,0.0,30.20,South,181,4.8,9.1,0,0.00,,---,0.00,VWS V14.00,2014-01-05 20:40:00,
2014-01-05 15:45:00,33.8,0.0,30.21,SSW,197,0.0,8.1,0,0.00,,---,0.00,VWS V14.00,2014-01-05 20:45:00,
2014-01-05 15:50:00,34.0,0.0,30.21,South,177,0.0,3.4,0,0.00,,---,0.00,VWS V14.00,2014-01-05 20:50:00,
2014-01-05 15:55:00,33.8,0.0,30.21,South,177,0.0,6.9,0,0.00,,---,0.00,VWS V14.00,2014-01-05 20:55:00,
2014-01-05 16:00:00,33.7,0.0,30.22,South,177,0.0,3.4,0,0.00,,---,0.00,VWS V14.00,2014-01-05 21:00:00,
2014-01-05 16:05:00,33.6,0.0,30.22,South,177,0.0,0.0,0,0.00,,---,0.00,VWS V14.00,2014-01-05 21:05:00,
2014-01-05 16:10:00,33.7,0.0,30.21,South,177,0.0,0.0,0,0.00,,---,0.00,VWS V14.00,2014-01-05 21:10:00,
2014-01-05 16:15:00,33.7,0.0,30.21,South,177,0.0,0.0,0,0.00,,---,0.00,VWS V14.00,2014-01-05 21:15:00,
2014-01-05 16:20:00,33.8,0.0,30.21,South,177,0.0,0.0,0,0.00,,---,0.00,VWS V14.00,2014-01-05 21:20:00,
2014-01-05 16:25:00,33.9,0.0,30.21,South,177,0.0,0.0,0,0.00,,---,0.00,VWS V14.00,2014-01-05 21:25:00,
2014-01-05 16:30:00,33.9,0.0,30.20,South,177,0.0,0.0,0,0.00,,---,0.00,VWS V14.00,2014-01-05 21:30:00,
2014-01-05 16:35:00,34.3,0.0,30.20,South,177,0.0,0.0,0,0.00,,---,0.00,VWS V14.00,2014-01-05 21:35:00,
2014-01-05 16:40:00,34.5,0.0,30.20,South,177,0.0,0.0,0,0.00,,---,0.00,VWS V14.00,2014-01-05 21:40:00,
2014-01-05 16:45:00,34.7,0.0,30.20,SSE,158,0.0,2.7,0,0.00,,---,0.00,VWS V14.00,2014-01-05 21:45:00,
2014-01-05 16:50:00,34.7,0.0,30.20,SSE,148,0.0,3.5,0,0.00,,---,0.00,VWS V14.00,2014-01-05 21:50:00,
2014-01-05 16:55:00,34.7,0.0,30.20,SSE,148,0.0,4.7,0,0.00,,---,0.00,VWS V14.00,2014-01-05 21:55:00,
2014-01-05 17:00:00,34.5,0.0,30.20,SSE,148,0.0,3.2,0,0.00,,---,0.00,VWS V14.00,2014-01-05 22:00:00,
2014-01-05 17:05:00,34.5,0.0,30.20,SSE,148,0.0,3.2,0,0.00,,---,0.00,VWS V14.00,2014-01-05 22:05:00,
2014-01-05 17:10:00,34.8,0.0,30.20,South,179,0.0,0.0,0,0.00,,---,0.00,VWS V15.00,2014-01-05 22:10:00,
2014-01-05 17:15:00,34.8,0.0,30.20,SE,142,0.0,0.0,0,0.00,,---,0.00,VWS V15.00,2014-01-05 22:15:00,
2014-01-05 17:20:00,34.8,0.0,30.20,SE,146,2.7,2.7,0,0.00,,---,0.00,VWS V15.00,2014-01-05 22:20:00,
2014-01-05 17:25:00,34.9,0.0,30.20,SE,135,3.3,3.3,0,0.00,,---,0.00,VWS V15.00,2014-01-05 22:25:00,
2014-01-05 17:30:00,34.7,0.0,30.20,SE,135,0.0,0.0,0,0.00,,---,0.00,VWS V15.00,2014-01-05 22:30:00,
2014-01-05 17:38:00,35.0,0.0,30.20,SE,135,0.0,0.0,0,0.00,,---,0.00,VWS V15.00,2014-01-05 22:38:00,
2014-01-05 17:50:00,35.0,0.0,30.20,SE,135,0.0,0.0,0,0.00,,---,0.00,VWS V15.00,2014-01-05 22:50:00,
2014-01-05 17:55:00,35.0,0.0,30.19,South,177,6.4,6.4,0,0.00,,---,0.00,VWS V15.00,2014-01-05 22:55:00,
2014-01-05 18:00:00,34.7,0.0,30.20,SSW,194,0.0,0.0,0,0.00,,---,0.00,VWS V15.00,2014-01-05 23:00:00,
2014-01-05 18:05:00,34.2,0.0,30.20,South,177,0.0,4.3,0,0.00,,---,0.00,VWS V15.00,2014-01-05 23:05:00,
2014-01-05 18:10:00,33.7,0.0,30.19,South,181,0.0,0.0,0,0.00,,---,0.00,VWS V15.00,2014-01-05 23:10:00,
2014-01-05 18:15:00,33.2,0.0,30.19,South,181,0.0,0.0,0,0.00,,---,0.00,VWS V15.00,2014-01-05 23:15:00,
2014-01-05 18:20:00,33.1,0.0,30.19,South,188,0.0,4.5,0,0.00,,---,0.00,VWS V15.00,2014-01-05 23:20:00,
2014-01-05 18:25:00,32.8,0.0,30.19,SSW,197,0.0,0.0,0,0.00,,---,0.00,VWS V15.00,2014-01-05 23:25:00,
2014-01-05 18:30:00,33.1,0.0,30.19,SSW,197,0.0,0.0,0,0.00,,---,0.00,VWS V15.00,2014-01-05 23:30:00,
2014-01-05 18:35:00,33.1,0.0,30.19,SSW,197,0.0,0.0,0,0.00,,---,0.00,VWS V15.00,2014-01-05 23:35:00,
2014-01-05 18:40:00,33.0,0.0,30.19,SSW,197,0.0,0.0,0,0.00,,---,0.00,VWS V15.00,2014-01-05 23:40:00,
2014-01-05 18:45:00,33.0,0.0,30.18,SSW,197,0.0,0.0,0,0.00,,---,0.00,VWS V15.00,2014-01-05 23:45:00,
2014-01-05 18:50:00,33.1,0.0,30.18,SSW,197,0.0,0.0,0,0.00,,---,0.00,VWS V15.00,2014-01-05 23:50:00,
2014-01-05 18:55:00,33.1,0.0,30.18,SSW,197,0.0,0.0,0,0.00,,---,0.00,VWS V15.00,2014-01-05 23:55:00,
2014-01-05 19:00:00,33.1,0.0,30.18,SSW,197,0.0,0.0,0,0.00,,---,0.00,VWS V15.00,2014-01-06 00:00:00,
2014-01-05 19:05:00,33.3,0.0,30.18,SSW,197,0.0,0.0,0,0.00,,---,0.00,VWS V15.00,2014-01-06 00:05:00,
2014-01-05 19:10:00,33.2,0.0,30.18,SSW,197,0.0,0.0,0,0.00,,---,0.00,VWS V15.00,2014-01-06 00:10:00,
2014-01-05 19:15:00,33.0,0.0,30.18,SSW,197,0.0,0.0,0,0.00,,---,0.00,VWS V15.00,2014-01-06 00:15:00,
2014-01-05 19:20:00,32.9,0.0,30.18,SSW,197,0.0,0.0,0,0.00,,---,0.00,VWS V15.00,2014-01-06 00:20:00,
2014-01-05 19:25:00,32.9,0.0,30.18,SSW,197,0.0,0.0,0,0.00,,---,0.00,VWS V15.00,2014-01-06 00:25:00,
2014-01-05 19:30:00,33.2,0.0,30.18,SSW,197,0.0,0.0,0,0.00,,---,0.00,VWS V15.00,2014-01-06 00:30:00,
2014-01-05 19:35:00,33.2,0.0,30.18,SSW,197,0.0,0.0,0,0.00,,---,0.00,VWS V15.00,2014-01-06 00:35:00,
2014-01-05 19:40:00,33.3,0.0,30.18,SSW,197,0.0,0.0,0,0.00,,---,0.00,VWS V15.00,2014-01-06 00:40:00,
2014-01-05 19:45:00,33.3,0.0,30.17,SSW,197,0.0,0.0,0,0.00,,---,0.00,VWS V15.00,2014-01-06 00:45:00,
2014-01-05 19:50:00,33.3,0.0,30.17,SSW,197,0.0,0.0,0,0.00,,---,0.00,VWS V15.00,2014-01-06 00:50:00,
2014-01-05 19:55:00,33.3,0.0,30.17,SSW,197,0.0,0.0,0,0.00,,---,0.00,VWS V15.00,2014-01-06 00:55:00,
2014-01-05 20:00:00,33.1,0.0,30.17,SSW,197,0.0,0.0,0,0.00,,---,0.00,VWS V15.00,2014-01-06 01:00:00,
2014-01-05 20:05:00,33.1,0.0,30.16,SSW,197,0.0,0.0,0,0.00,,---,0.00,VWS V15.00,2014-01-06 01:05:00,
2014-01-05 20:10:00,33.4,0.0,30.16,SSW,197,0.0,0.0,0,0.00,,---,0.00,VWS V15.00,2014-01-06 01:10:00,
2014-01-05 20:15:00,33.3,0.0,30.15,SSW,197,0.0,0.0,0,0.00,,---,0.00,VWS V15.00,2014-01-06 01:15:00,
2014-01-05 20:20:00,33.4,0.0,30.15,SSW,197,0.0,0.0,0,0.00,,---,0.00,VWS V15.00,2014-01-06 01:20:00,
2014-01-05 20:25:00,33.5,0.0,30.15,NE,37,2.2,2.2,0,0.00,,---,0.00,VWS V15.00,2014-01-06 01:25:00,
2014-01-05 20:30:00,33.5,0.0,30.15,NE,37,0.0,0.0,0,0.00,,---,0.00,VWS V15.00,2014-01-06 01:30:00,
2014-01-05 20:35:00,33.6,0.0,30.15,NE,37,0.0,0.0,0,0.00,,---,0.00,VWS V15.00,2014-01-06 01:35:00,
2014-01-05 20:40:00,33.9,0.0,30.14,NNE,31,5.1,5.1,0,0.00,,---,0.00,VWS V15.00,2014-01-06 01:40:00,
2014-01-05 20:45:00,34.1,0.0,30.13,NNE,32,0.0,5.4,0,0.00,,---,0.00,VWS V15.00,2014-01-06 01:45:00,
2014-01-05 20:50:00,34.1,0.0,30.14,ENE,73,0.0,0.0,0,0.00,,---,0.00,VWS V15.00,2014-01-06 01:50:00,
2014-01-05 20:55:00,34.2,0.0,30.13,NE,41,0.0,0.0,0,0.00,,---,0.00,VWS V15.00,2014-01-06 01:55:00,
2014-01-05 21:00:00,34.2,0.0,30.13,NE,41,0.0,0.0,0,0.00,,---,0.00,VWS V15.00,2014-01-06 02:00:00,
2014-01-05 21:05:00,34.1,0.0,30.13,NNE,24,0.0,0.0,0,0.00,,---,0.00,VWS V15.00,2014-01-06 02:05:00,
2014-01-05 21:10:00,34.1,0.0,30.12,NE,35,0.0,0.0,0,0.00,,---,0.00,VWS V15.00,2014-01-06 02:10:00,
2014-01-05 21:15:00,34.0,0.0,30.12,ENE,58,3.2,3.2,0,0.00,,---,0.00,VWS V15.00,2014-01-06 02:15:00,
2014-01-05 21:20:00,34.1,0.0,30.12,NNE,25,0.0,0.0,0,0.00,,---,0.00,VWS V15.00,2014-01-06 02:20:00,
2014-01-05 21:25:00,34.1,0.0,30.11,NNE,24,2.5,3.2,0,0.00,,---,0.00,VWS V15.00,2014-01-06 02:25:00,
2014-01-05 21:30:00,34.2,0.0,30.10,NNE,27,5.5,7.1,0,0.00,,---,0.00,VWS V15.00,2014-01-06 02:30:00,
2014-01-05 21:35:00,34.6,0.0,30.10,North,3,4.9,8.9,0,0.00,,---,0.00,VWS V15.00,2014-01-06 02:35:00,
2014-01-05 21:40:00,34.8,0.0,30.09,NNE,20,7.1,11.2,0,0.00,,---,0.00,VWS V15.00,2014-01-06 02:40:00,
2014-01-05 21:45:00,35.1,0.0,30.09,NNE,21,9.9,12.4,0,0.00,,---,0.00,VWS V15.00,2014-01-06 02:45:00,
2014-01-05 21:50:00,35.2,0.0,30.09,NE,52,6.0,12.1,0,0.00,,---,0.00,VWS V15.00,2014-01-06 02:50:00,
2014-01-05 21:55:00,35.1,0.0,30.09,NE,37,10.6,10.6,0,0.00,,---,0.00,VWS V15.00,2014-01-06 02:55:00,
2014-01-05 22:00:00,35.1,0.0,30.08,NE,41,8.0,11.6,0,0.00,,---,0.00,VWS V15.00,2014-01-06 03:00:00,
2014-01-05 22:05:00,35.1,0.0,30.08,NNE,14,7.7,12.4,0,0.00,,---,0.00,VWS V15.00,2014-01-06 03:05:00,
2014-01-05 22:10:00,35.0,0.0,30.07,NE,37,6.9,13.5,0,0.00,,---,0.00,VWS V15.00,2014-01-06 03:10:00,
2014-01-05 22:15:00,35.0,0.0,30.07,NE,52,9.4,11.6,0,0.00,,---,0.00,VWS V15.00,2014-01-06 03:15:00,
2014-01-05 22:20:00,35.0,0.0,30.07,NNE,27,8.0,14.4,0,0.00,,---,0.00,VWS V15.00,2014-01-06 03:20:00,
2014-01-05 22:25:00,35.0,0.0,30.06,NE,56,11.4,14.9,0,0.00,,---,0.00,VWS V15.00,2014-01-06 03:25:00,
2014-01-05 22:30:00,35.0,0.0,30.06,North,359,7.4,12.9,0,0.00,,---,0.00,VWS V15.00,2014-01-06 03:30:00,
2014-01-05 22:35:00,35.0,0.0,30.05,NNE,24,11.2,11.5,0,0.00,,---,0.00,VWS V15.00,2014-01-06 03:35:00,
2014-01-05 22:40:00,34.9,0.0,30.05,NNE,21,13.9,13.9,0,0.00,,---,0.00,VWS V15.00,2014-01-06 03:40:00,
2014-01-05 22:45:00,35.0,0.0,30.04,NE,45,6.7,12.1,0,0.00,,---,0.00,VWS V15.00,2014-01-06 03:45:00,
2014-01-05 22:50:00,35.0,0.0,30.04,NNE,28,12.2,12.2,0,0.00,,---,0.00,VWS V15.00,2014-01-06 03:50:00,
2014-01-05 22:55:00,35.1,0.0,30.04,NE,48,9.1,11.7,0,0.00,,---,0.00,VWS V15.00,2014-01-06 03:55:00,
2014-01-05 23:00:00,35.0,0.0,30.03,NE,45,8.8,9.8,0,0.01,,---,0.01,VWS V15.00,2014-01-06 04:00:00,
2014-01-05 23:05:00,35.1,0.0,30.02,NNE,28,7.0,14.4,0,0.02,,---,0.02,VWS V15.00,2014-01-06 04:05:00,
2014-01-05 23:10:00,35.1,0.0,30.02,NNE,27,6.5,9.1,0,0.02,,---,0.02,VWS V15.00,2014-01-06 04:10:00,
2014-01-05 23:15:00,35.2,0.0,30.01,NE,35,7.6,13.4,0,0.03,,---,0.03,VWS V15.00,2014-01-06 04:15:00,
2014-01-05 23:20:00,35.1,0.0,30.00,NE,53,9.3,12.6,0,0.03,,---,0.03,VWS V15.00,2014-01-06 04:20:00,
2014-01-05 23:25:00,35.2,0.0,30.00,NNE,25,10.3,16.1,0,0.03,,---,0.03,VWS V15.00,2014-01-06 04:25:00,
2014-01-05 23:30:00,35.3,0.0,29.99,NNE,28,8.0,13.0,0,0.03,,---,0.03,VWS V15.00,2014-01-06 04:30:00,
2014-01-05 23:35:00,35.4,0.0,29.99,North,359,4.2,10.5,0,0.03,,---,0.03,VWS V15.00,2014-01-06 04:35:00,
2014-01-05 23:40:00,35.2,0.0,29.98,North,8,9.4,12.5,0,0.03,,---,0.03,VWS V15.00,2014-01-06 04:40:00,
2014-01-05 23:45:00,35.2,0.0,29.97,NE,34,9.8,10.4,0,0.03,,---,0.03,VWS V15.00,2014-01-06 04:45:00,